createdAt,value
2019-01-09T00:33:13.828Z,27.8
2019-01-09T00:34:03.603Z,28.3
2019-01-09T00:34:54.549Z,28.6
2019-01-09T00:35:46.154Z,28.8
2019-01-09T00:36:34.032Z,28.9
2019-01-09T00:37:23.547Z,28.9
2019-01-09T00:38:13.918Z,28.9
2019-01-09T00:39:04.532Z,28.8
2019-01-09T00:39:53.525Z,28.6
2019-01-09T00:40:43.197Z,28.4
2019-01-09T00:41:34.720Z,28.1
2019-01-09T00:42:24.474Z,27.9
2019-01-09T00:43:14.920Z,27.9
2019-01-09T00:44:04.352Z,28.3
2019-01-09T00:44:55.604Z,28.6
2019-01-09T00:45:44.142Z,28.9
2019-01-09T00:46:35.450Z,29.1
2019-01-09T00:47:24.104Z,29.1
2019-01-09T00:48:14.733Z,29.1
2019-01-09T00:49:04.571Z,28.9
2019-01-09T00:49:55.420Z,28.8
2019-01-09T00:50:43.792Z,28.6
2019-01-09T00:51:34.487Z,28.4
2019-01-09T00:52:25.841Z,28.2
2019-01-09T00:53:15.113Z,27.9
2019-01-09T00:54:55.485Z,27.6
2019-01-09T00:55:45.286Z,27.6
2019-01-09T00:56:35.540Z,28
2019-01-09T00:57:24.831Z,28.4
2019-01-09T00:58:16.351Z,28.7
2019-01-09T00:59:04.136Z,28.9
2019-01-09T00:59:55.783Z,28.9
2019-01-09T01:00:45.737Z,28.9
2019-01-09T01:01:35.908Z,28.8
2019-01-09T01:02:25.771Z,28.7
2019-01-09T01:03:15.903Z,28.5
2019-01-09T01:04:07.043Z,28.3
2019-01-09T01:04:56.128Z,28.1
2019-01-09T01:06:35.936Z,27.6
2019-01-09T01:07:26.101Z,27.7
2019-01-09T01:08:16.650Z,28.1
2019-01-09T01:09:05.760Z,28.4
2019-01-09T01:09:56.813Z,28.8
2019-01-09T01:10:46.788Z,28.9
2019-01-09T01:11:36.282Z,28.9
2019-01-09T01:12:27.260Z,28.9
2019-01-09T01:13:15.026Z,28.9
2019-01-09T01:14:07.001Z,28.7
2019-01-09T01:14:56.570Z,28.6
2019-01-09T01:15:46.278Z,28.3
2019-01-09T01:16:37.470Z,28.1
2019-01-09T01:18:17.790Z,27.8
2019-01-09T01:19:07.345Z,28
2019-01-09T01:19:57.937Z,28.4
2019-01-09T01:20:45.789Z,28.8
2019-01-09T01:21:37.517Z,28.9
2019-01-09T01:22:26.572Z,29
2019-01-09T01:23:17.830Z,29
2019-01-09T01:24:06.412Z,28.9
2019-01-09T01:24:57.474Z,28.8
2019-01-09T01:25:47.009Z,28.6
2019-01-09T01:26:36.772Z,28.4
2019-01-09T01:27:27.392Z,28.2
2019-01-09T01:28:17.687Z,27.9
2019-01-09T01:29:07.802Z,27.8
2019-01-09T01:29:57.293Z,27.6
2019-01-09T01:30:47.607Z,27.9
2019-01-09T01:31:37.376Z,28.3
2019-01-09T01:32:27.711Z,28.6
2019-01-09T01:33:18.317Z,28.8
2019-01-09T01:34:08.697Z,28.9
2019-01-09T01:34:58.874Z,28.9
2019-01-09T01:35:57.461Z,28.8
2019-01-09T01:36:38.050Z,28.7
2019-01-09T01:37:28.314Z,28.6
2019-01-09T01:38:18.134Z,28.3
2019-01-09T01:39:08.446Z,28.1
2019-01-09T01:39:59.381Z,27.9
2019-01-09T01:40:48.513Z,27.7
2019-01-09T01:41:38.851Z,27.8
2019-01-09T01:42:29.174Z,28.1
2019-01-09T01:43:18.971Z,28.4
2019-01-09T01:44:09.377Z,28.8
2019-01-09T01:44:59.071Z,28.9
2019-01-09T01:45:48.666Z,29
2019-01-09T01:46:38.171Z,29
2019-01-09T01:47:28.429Z,28.9
2019-01-09T01:48:18.241Z,28.8
2019-01-09T01:49:07.986Z,28.6
2019-01-09T01:49:59.443Z,28.4
2019-01-09T01:50:49.496Z,28.3
2019-01-09T01:51:39.543Z,28.4
2019-01-09T01:52:30.497Z,28.7
2019-01-09T01:53:19.455Z,29
2019-01-09T01:54:08.210Z,29.1
2019-01-09T01:55:00.421Z,29.1
2019-01-09T01:55:50.098Z,29.1
2019-01-09T01:56:39.925Z,29
2019-01-09T01:57:30.180Z,28.8
2019-01-09T01:58:18.623Z,28.6
2019-01-09T01:59:10.408Z,28.4
2019-01-09T01:59:59.902Z,28.2
2019-01-09T02:00:49.893Z,27.9
2019-01-09T02:01:40.265Z,27.8
2019-01-09T02:02:30.364Z,27.6
2019-01-09T02:03:20.048Z,27.9
2019-01-09T02:04:09.846Z,28.3
2019-01-09T02:05:00.166Z,28.6
2019-01-09T02:05:49.655Z,28.8
2019-01-09T02:06:39.760Z,28.9
2019-01-09T02:07:31.139Z,28.9
2019-01-09T02:08:20.639Z,28.9
2019-01-09T02:09:09.337Z,28.8
2019-01-09T02:10:01.129Z,28.6
2019-01-09T02:10:50.070Z,28.4
2019-01-09T02:11:38.956Z,28.2
2019-01-09T02:12:30.947Z,28
2019-01-09T02:13:19.894Z,28
2019-01-09T02:14:10.504Z,28.3
2019-01-09T02:15:00.839Z,28.6
2019-01-09T02:15:51.706Z,28.9
2019-01-09T02:16:41.284Z,29
2019-01-09T02:17:30.704Z,29.1
2019-01-09T02:18:20.509Z,29
2019-01-09T02:19:11.659Z,28.9
2019-01-09T02:20:00.631Z,28.8
2019-01-09T02:20:50.651Z,28.7
2019-01-09T02:21:41.686Z,28.4
2019-01-09T02:22:31.404Z,28.2
2019-01-09T02:23:21.391Z,28
2019-01-09T02:24:10.866Z,28.1
2019-01-09T02:25:01.509Z,28.4
2019-01-09T02:25:50.828Z,28.7
2019-01-09T02:26:41.061Z,29
2019-01-09T02:27:31.476Z,29.1
2019-01-09T02:28:22.283Z,29.1
2019-01-09T02:29:12.333Z,29.1
2019-01-09T02:30:01.929Z,29
2019-01-09T02:30:51.442Z,28.9
2019-01-09T02:31:42.415Z,28.8
2019-01-09T02:32:30.720Z,28.6
2019-01-09T02:33:22.240Z,28.3
2019-01-09T02:34:12.196Z,28.1
2019-01-09T02:35:02.180Z,27.9
2019-01-09T02:35:50.899Z,28.1
2019-01-09T02:36:42.854Z,28.4
2019-01-09T02:37:32.354Z,28.8
2019-01-09T02:38:22.481Z,28.9
2019-01-09T02:39:12.872Z,28.9
2019-01-09T02:40:03.275Z,28.9
2019-01-09T02:40:55.995Z,28.8
2019-01-09T02:41:42.173Z,28.7
2019-01-09T02:42:32.751Z,28.5
2019-01-09T02:43:21.931Z,28.3
2019-01-09T02:44:12.833Z,28.1
2019-01-09T02:45:03.853Z,27.9
2019-01-09T02:45:52.124Z,27.7
2019-01-09T02:46:42.795Z,27.6
2019-01-09T02:47:34.279Z,27.9
2019-01-09T02:48:23.164Z,28.3
2019-01-09T02:49:14.097Z,28.6
2019-01-09T02:50:03.200Z,28.9
2019-01-09T02:50:52.891Z,29
2019-01-09T02:51:41.704Z,29.1
2019-01-09T02:52:33.640Z,29.1
2019-01-09T02:53:23.190Z,28.9
2019-01-09T02:54:13.027Z,28.9
2019-01-09T02:55:03.767Z,28.7
2019-01-09T02:55:52.549Z,28.5
2019-01-09T02:56:43.669Z,28.3
2019-01-09T02:57:34.132Z,28.3
2019-01-09T02:58:24.334Z,28.5
2019-01-09T02:59:14.031Z,28.8
2019-01-09T03:00:04.557Z,29.1
2019-01-09T03:00:53.684Z,29.1
2019-01-09T03:01:43.536Z,29.1
2019-01-09T03:02:34.437Z,29.1
2019-01-09T03:03:24.407Z,28.9
2019-01-09T03:04:14.226Z,28.8
2019-01-09T03:05:04.068Z,28.6
2019-01-09T03:05:54.333Z,28.3
2019-01-09T03:06:44.597Z,28.1
2019-01-09T03:07:35.349Z,27.9
2019-01-09T03:08:25.161Z,27.7
2019-01-09T03:09:14.330Z,27.8
2019-01-09T03:10:04.924Z,28.1
2019-01-09T03:10:54.726Z,28.4
2019-01-09T03:11:45.566Z,28.8
2019-01-09T03:12:34.454Z,28.9
2019-01-09T03:13:24.518Z,29
2019-01-09T03:14:14.716Z,28.9
2019-01-09T03:15:05.252Z,28.9
2019-01-09T03:15:54.758Z,28.8
2019-01-09T03:16:44.956Z,28.6
2019-01-09T03:17:33.989Z,28.4
2019-01-09T03:18:24.843Z,28.2
2019-01-09T03:19:15.462Z,28.1
2019-01-09T03:20:04.851Z,28.3
2019-01-09T03:20:55.452Z,28.6
2019-01-09T03:21:45.726Z,28.9
2019-01-09T03:22:35.086Z,29.1
2019-01-09T03:23:25.830Z,29.2
2019-01-09T03:24:14.868Z,29.2
2019-01-09T03:25:06.001Z,29.1
2019-01-09T03:25:55.926Z,28.9
2019-01-09T03:26:45.782Z,28.8
2019-01-09T03:27:34.350Z,28.6
2019-01-09T03:28:25.840Z,28.4
2019-01-09T03:29:15.555Z,28.1
2019-01-09T03:30:05.575Z,27.9
2019-01-09T03:30:56.400Z,27.9
2019-01-09T03:31:45.801Z,28.3
2019-01-09T03:32:36.494Z,28.6
2019-01-09T03:33:27.242Z,28.9
2019-01-09T03:34:15.879Z,29.1
2019-01-09T03:35:06.537Z,29.1
2019-01-09T03:35:56.552Z,29.1
2019-01-09T03:36:45.784Z,28.9
2019-01-09T03:37:36.180Z,28.8
2019-01-09T03:38:26.209Z,28.6
2019-01-09T03:39:17.083Z,28.4
2019-01-09T03:40:06.949Z,28.2
2019-01-09T03:40:56.907Z,28
2019-01-09T03:41:46.675Z,27.9
2019-01-09T03:42:35.233Z,28.1
2019-01-09T03:43:26.557Z,28.4
2019-01-09T03:44:16.914Z,28.8
2019-01-09T03:45:07.070Z,29
2019-01-09T03:45:56.936Z,29
2019-01-09T03:46:47.445Z,29
2019-01-09T03:47:36.253Z,28.9
2019-01-09T03:48:26.584Z,28.8
2019-01-09T03:49:17.412Z,28.6
2019-01-09T03:50:06.688Z,28.4
2019-01-09T03:50:57.287Z,28.2
2019-01-09T03:51:47.609Z,28
2019-01-09T03:54:17.225Z,28.2
2019-01-09T03:55:07.828Z,28.5
2019-01-09T03:55:57.402Z,28.8
2019-01-09T03:56:47.152Z,28.9
2019-01-09T03:57:38.378Z,28.9
2019-01-09T03:58:27.305Z,28.9
2019-01-09T03:59:16.861Z,28.8
2019-01-09T04:00:07.848Z,28.6
2019-01-09T04:00:57.985Z,28.5
2019-01-09T04:01:47.770Z,28.3
2019-01-09T04:02:38.627Z,28.1
2019-01-09T04:04:18.020Z,27.7
2019-01-09T04:05:08.105Z,27.9
2019-01-09T04:05:58.837Z,28.3
2019-01-09T04:06:50.997Z,28.6
2019-01-09T04:07:37.871Z,28.8
2019-01-09T04:08:28.238Z,28.9
2019-01-09T04:09:18.855Z,28.9
2019-01-09T04:10:08.719Z,28.9
2019-01-09T04:10:58.133Z,28.8
2019-01-09T04:11:48.775Z,28.7
2019-01-09T04:12:39.108Z,28.5
2019-01-09T04:13:28.342Z,28.3
2019-01-09T04:14:18.662Z,28.1
2019-01-09T04:15:09.403Z,27.9
2019-01-09T04:16:48.960Z,28.1
2019-01-09T04:17:39.658Z,28.4
2019-01-09T04:18:28.584Z,28.8
2019-01-09T04:19:18.614Z,28.9
2019-01-09T04:20:09.522Z,28.9
2019-01-09T04:20:59.353Z,28.9
2019-01-09T04:21:48.859Z,28.8
2019-01-09T04:22:39.680Z,28.6
2019-01-09T04:23:30.034Z,28.5
2019-01-09T04:24:18.161Z,28.3
2019-01-09T04:25:08.414Z,28.1
2019-01-09T04:26:50.419Z,27.6
2019-01-09T04:27:38.381Z,27.8
2019-01-09T04:28:30.142Z,28.1
2019-01-09T04:29:20.723Z,28.5
2019-01-09T04:30:10.271Z,28.8
2019-01-09T04:31:00.842Z,28.9
2019-01-09T04:31:49.883Z,28.9
2019-01-09T04:32:39.661Z,28.9
2019-01-09T04:33:30.826Z,28.8
2019-01-09T04:34:20.580Z,28.8
2019-01-09T04:35:10.060Z,28.6
2019-01-09T04:36:00.141Z,28.4
2019-01-09T04:37:00.381Z,28.2
2019-01-09T04:37:40.390Z,28.1
2019-01-09T04:38:29.670Z,28.3
2019-01-09T04:39:20.558Z,28.6
2019-01-09T04:40:10.501Z,28.8
2019-01-09T04:41:00.472Z,29
2019-01-09T04:41:50.195Z,29
2019-01-09T04:42:41.653Z,29
2019-01-09T04:43:30.061Z,28.9
2019-01-09T04:44:21.160Z,28.8
2019-01-09T04:45:10.038Z,28.6
2019-01-09T05:02:31.497Z,28.7
2019-01-09T05:03:20.627Z,28.9
2019-01-09T05:04:11.542Z,29
2019-01-09T05:04:59.674Z,29
2019-01-09T05:05:51.872Z,28.9
2019-01-09T05:06:41.677Z,28.8
2019-01-09T05:07:32.029Z,28.6
2019-01-09T05:08:21.308Z,28.4
2019-01-09T05:09:12.110Z,28.3
2019-01-09T05:10:03.828Z,28
2019-01-09T05:12:32.099Z,28.1
2019-01-09T05:13:22.574Z,28.4
2019-01-09T05:14:12.158Z,28.8
2019-01-09T05:15:03.133Z,28.9
2019-01-09T05:15:52.556Z,28.9
2019-01-09T05:16:41.559Z,28.9
2019-01-09T05:17:32.118Z,28.8
2019-01-09T05:18:22.846Z,28.7
2019-01-09T05:19:12.003Z,28.6
2019-01-09T05:20:02.311Z,28.4
2019-01-09T05:20:52.382Z,28.1
2019-01-09T05:21:43.364Z,27.9
2019-01-09T05:22:32.134Z,27.9
2019-01-09T05:23:22.888Z,28.3
2019-01-09T05:24:12.323Z,28.6
2019-01-09T05:25:02.894Z,28.8
2019-01-09T05:25:52.604Z,28.9
2019-01-09T05:26:42.722Z,28.9
2019-01-09T05:27:32.860Z,28.9
2019-01-09T05:28:23.069Z,28.8
2019-01-09T05:29:12.855Z,28.6
2019-01-09T05:30:02.334Z,28.4
2019-01-09T05:30:53.118Z,28.2
2019-01-09T05:31:43.315Z,28
2019-01-09T05:32:33.102Z,27.8
2019-01-09T05:33:23.440Z,27.6
2019-01-09T05:34:12.958Z,27.8
2019-01-09T05:35:03.920Z,28.1
2019-01-09T05:35:53.092Z,28.4
2019-01-09T05:36:43.213Z,28.7
2019-01-09T05:37:33.499Z,28.9
2019-01-09T05:38:24.609Z,28.9
2019-01-09T05:39:14.535Z,28.9
2019-01-09T05:40:04.315Z,28.8
2019-01-09T05:40:54.184Z,28.6
2019-01-09T05:41:43.721Z,28.5
2019-01-09T05:42:34.879Z,28.3
2019-01-09T05:43:23.781Z,28.1
2019-01-09T05:44:14.147Z,27.9
2019-01-09T05:45:06.751Z,28.1
2019-01-09T05:45:53.444Z,28.4
2019-01-09T05:46:45.147Z,28.7
2019-01-09T05:47:34.446Z,28.9
2019-01-09T05:48:24.206Z,28.9
2019-01-09T05:49:14.259Z,28.9
2019-01-09T05:50:03.489Z,28.9
2019-01-09T05:50:55.861Z,28.8
2019-01-09T05:51:44.723Z,28.6
2019-01-09T05:52:33.692Z,28.4
2019-01-09T05:53:23.371Z,28.2
2019-01-09T05:54:14.896Z,28
2019-01-09T05:55:04.092Z,27.8
2019-01-09T05:55:53.843Z,27.7
2019-01-09T05:56:45.235Z,27.9
2019-01-09T05:57:34.694Z,28.3
2019-01-09T05:58:23.939Z,28.6
2019-01-09T05:59:15.658Z,28.8
2019-01-09T06:00:05.660Z,28.9
2019-01-09T06:00:55.256Z,28.9
2019-01-09T06:01:45.943Z,28.8
2019-01-09T06:02:36.955Z,28.8
2019-01-09T06:03:25.713Z,28.6
2019-01-09T06:04:16.360Z,28.4
2019-01-09T06:05:06.065Z,28.2
2019-01-09T06:05:54.995Z,28
2019-01-09T06:06:44.523Z,28.2
2019-01-09T06:07:36.261Z,28.4
2019-01-09T06:08:26.051Z,28.7
2019-01-09T06:09:16.133Z,28.9
2019-01-09T06:10:06.422Z,28.9
2019-01-09T06:10:55.698Z,28.9
2019-01-09T06:11:46.302Z,28.9
2019-01-09T06:12:35.203Z,28.8
2019-01-09T06:13:26.392Z,28.6
2019-01-09T06:14:16.775Z,28.4
2019-01-09T06:15:06.461Z,28.2
2019-01-09T06:15:56.225Z,27.9
2019-01-09T06:16:46.565Z,27.8
2019-01-09T06:18:25.842Z,28.1
2019-01-09T06:19:15.925Z,28.5
2019-01-09T06:20:07.180Z,28.8
2019-01-09T06:20:56.379Z,28.9
2019-01-09T06:21:46.182Z,29
2019-01-09T06:22:37.529Z,29
2019-01-09T06:23:27.134Z,28.9
2019-01-09T06:24:17.019Z,28.8
2019-01-09T06:25:07.826Z,28.6
2019-01-09T06:25:57.249Z,28.4
2019-01-09T06:26:47.047Z,28.3
2019-01-09T06:27:37.638Z,28
2019-01-09T06:29:17.114Z,28.1
2019-01-09T06:30:07.524Z,28.4
2019-01-09T06:30:57.881Z,28.7
2019-01-09T06:31:47.576Z,28.9
2019-01-09T06:32:37.866Z,28.9
2019-01-09T06:33:27.560Z,28.9
2019-01-09T06:34:17.239Z,28.8
2019-01-09T06:35:07.859Z,28.7
2019-01-09T06:35:57.528Z,28.5
2019-01-09T06:36:47.526Z,28.4
2019-01-09T06:37:38.756Z,28.1
2019-01-09T06:39:17.206Z,27.8
2019-01-09T06:40:08.206Z,28
2019-01-09T06:40:56.903Z,28.4
2019-01-09T06:41:47.910Z,28.6
2019-01-09T06:42:37.491Z,28.9
2019-01-09T06:43:28.888Z,28.9
2019-01-09T06:44:18.414Z,28.9
2019-01-09T06:45:07.733Z,28.9
2019-01-09T06:45:58.551Z,28.8
2019-01-09T06:46:48.125Z,28.6
2019-01-09T06:47:38.853Z,28.4
2019-01-09T06:48:27.897Z,28.2
2019-01-09T06:49:18.971Z,28
2019-01-09T06:50:10.539Z,28.1
2019-01-09T06:50:59.177Z,28.5
2019-01-09T06:51:49.487Z,28.8
2019-01-09T06:52:38.897Z,28.9
2019-01-09T06:53:29.503Z,29
2019-01-09T06:54:19.227Z,28.9
2019-01-09T06:55:10.100Z,28.9
2019-01-09T06:56:00.028Z,28.7
2019-01-09T06:56:48.782Z,28.6
2019-01-09T06:57:38.961Z,28.4
2019-01-09T06:58:29.190Z,28.2
2019-01-09T06:59:17.970Z,27.9
2019-01-09T07:00:09.489Z,27.8
2019-01-09T07:00:58.461Z,27.9
2019-01-09T07:01:49.443Z,28.2
2019-01-09T07:02:39.365Z,28.6
2019-01-09T07:03:28.596Z,28.8
2019-01-09T07:04:19.267Z,28.9
2019-01-09T07:05:08.992Z,28.9
2019-01-09T07:05:58.273Z,28.8
2019-01-09T07:06:49.613Z,28.7
2019-01-09T07:07:46.350Z,28.6
2019-01-09T07:08:29.708Z,28.4
2019-01-09T07:09:20.659Z,28.2
2019-01-09T07:10:12.212Z,27.9
2019-01-09T07:10:59.870Z,27.7
2019-01-09T07:11:49.918Z,27.6
2019-01-09T07:12:40.575Z,27.9
2019-01-09T07:13:30.312Z,28.3
2019-01-09T07:14:20.774Z,28.6
2019-01-09T07:15:21.677Z,28.8
2019-01-09T07:16:00.522Z,28.8
2019-01-09T07:16:48.979Z,28.8
2019-01-09T07:17:39.189Z,28.8
2019-01-09T07:18:30.927Z,28.7
2019-01-09T07:19:20.757Z,28.6
2019-01-09T07:20:10.648Z,28.4
2019-01-09T07:21:00.879Z,28.1
2019-01-09T07:21:56.152Z,28.1
2019-01-09T07:22:40.094Z,28.3
2019-01-09T07:23:32.005Z,28.6
2019-01-09T07:24:20.850Z,28.8
2019-01-09T07:25:10.572Z,28.9
2019-01-09T07:26:01.150Z,29
2019-01-09T07:26:51.881Z,28.9
2019-01-09T07:27:40.528Z,28.8
2019-01-09T07:28:29.969Z,28.7
2019-01-09T07:29:21.191Z,28.6
2019-01-09T07:30:11.474Z,28.4
2019-01-09T07:31:01.191Z,28.1
2019-01-09T07:31:51.568Z,27.9
2019-01-09T07:32:41.091Z,27.8
2019-01-09T07:34:21.131Z,28.1
2019-01-09T07:35:11.326Z,28.4
2019-01-09T07:36:00.996Z,28.7
2019-01-09T07:36:52.238Z,28.8
2019-01-09T07:37:51.046Z,28.8
2019-01-09T07:38:31.978Z,28.8
2019-01-09T07:39:21.483Z,28.6
2019-01-09T07:40:11.053Z,28.5
2019-01-09T07:41:01.726Z,28.3
2019-01-09T07:41:52.260Z,28.1
2019-01-09T07:42:41.866Z,27.9
2019-01-09T07:43:32.353Z,27.7
2019-01-09T07:45:11.888Z,28.1
2019-01-09T07:46:02.285Z,28.5
2019-01-09T07:46:51.867Z,28.7
2019-01-09T07:47:42.350Z,28.8
2019-01-09T07:48:32.145Z,28.9
2019-01-09T07:49:22.158Z,28.8
2019-01-09T07:50:12.508Z,28.7
2019-01-09T07:51:02.574Z,28.6
2019-01-09T07:51:51.906Z,28.4
2019-01-09T07:52:42.407Z,28.3
2019-01-09T07:53:32.535Z,28
2019-01-09T07:55:12.577Z,28
2019-01-09T07:56:01.790Z,28.3
2019-01-09T07:56:52.381Z,28.6
2019-01-09T07:57:41.730Z,28.9
2019-01-09T07:58:32.525Z,28.9
2019-01-09T07:59:23.155Z,29
2019-01-09T08:00:12.345Z,29
2019-01-09T08:01:03.299Z,28.9
2019-01-09T08:01:53.933Z,28.8
2019-01-09T08:02:43.704Z,28.6
2019-01-09T08:03:32.855Z,28.4
2019-01-09T08:04:23.439Z,28.2
2019-01-09T08:05:13.262Z,28
2019-01-09T08:06:03.923Z,28.1
2019-01-09T08:06:54.177Z,28.4
2019-01-09T08:07:43.168Z,28.7
2019-01-09T08:08:34.022Z,28.9
2019-01-09T08:09:23.281Z,28.9
2019-01-09T08:10:12.863Z,28.9
2019-01-09T08:11:04.464Z,28.8
2019-01-09T08:11:56.679Z,28.6
2019-01-09T08:12:43.474Z,28.5
2019-01-09T08:13:33.289Z,28.3
2019-01-09T08:14:25.044Z,28.1
2019-01-09T08:15:14.734Z,27.9
2019-01-09T08:16:04.827Z,27.6
2019-01-09T08:16:54.359Z,27.5
2019-01-09T08:17:43.605Z,27.6
2019-01-09T08:18:34.438Z,27.9
2019-01-09T08:19:24.718Z,28.4
2019-01-09T08:20:14.222Z,28.6
2019-01-09T08:21:14.221Z,28.8
2019-01-09T08:21:54.890Z,28.8
2019-01-09T08:22:44.948Z,28.8
2019-01-09T08:23:34.743Z,28.8
2019-01-09T08:24:25.252Z,28.6
2019-01-09T08:25:14.743Z,28.4
2019-01-09T08:26:05.433Z,28.2
2019-01-09T08:26:54.694Z,28.1
2019-01-09T08:27:45.088Z,28.3
2019-01-09T08:28:34.525Z,28.6
2019-01-09T08:29:25.398Z,28.8
2019-01-09T08:30:15.107Z,29
2019-01-09T08:31:04.697Z,29.1
2019-01-09T08:31:55.060Z,29.1
2019-01-09T08:32:45.450Z,28.9
2019-01-09T08:33:34.613Z,28.8
2019-01-09T08:34:25.524Z,28.7
2019-01-09T08:35:16.445Z,28.5
2019-01-09T08:36:06.218Z,28.3
2019-01-09T08:36:55.978Z,28.1
2019-01-09T08:38:36.326Z,27.8
2019-01-09T08:39:26.573Z,28.1
2019-01-09T08:40:15.367Z,28.4
2019-01-09T08:41:05.697Z,28.7
2019-01-09T08:41:55.787Z,28.8
2019-01-09T08:42:46.421Z,28.9
2019-01-09T08:43:36.167Z,28.9
2019-01-09T08:44:25.677Z,28.8
2019-01-09T08:45:15.634Z,28.7
2019-01-09T08:46:05.992Z,28.6
2019-01-09T08:46:56.632Z,28.4
2019-01-09T08:47:47.212Z,28.1
2019-01-09T08:48:36.695Z,27.9
2019-01-09T08:49:27.042Z,28.1
2019-01-09T08:50:15.764Z,28.4
2019-01-09T08:51:05.714Z,28.7
2019-01-09T08:51:56.651Z,28.9
2019-01-09T08:52:46.554Z,28.9
2019-01-09T08:53:35.366Z,29
2019-01-09T08:54:27.460Z,28.9
2019-01-09T08:55:17.681Z,28.8
2019-01-09T08:56:06.371Z,28.6
2019-01-09T08:56:56.961Z,28.4
2019-01-09T08:57:46.749Z,28.2
2019-01-09T08:58:37.738Z,27.9
2019-01-09T08:59:27.505Z,27.9
2019-01-09T09:00:17.620Z,28.1
2019-01-09T09:01:07.838Z,28.4
2019-01-09T09:17:03.707Z,28.3
2019-01-09T09:17:53.553Z,28.1
2019-01-09T09:18:43.762Z,28
2019-01-09T09:20:23.872Z,27.6
2019-01-09T09:22:03.619Z,28.2
2019-01-09T09:22:53.918Z,28.5
2019-01-09T09:23:43.959Z,28.7
2019-01-09T09:24:33.629Z,28.8
2019-01-09T09:25:23.307Z,28.8
2019-01-09T09:26:14.399Z,28.7
2019-01-09T09:27:03.951Z,28.6
2019-01-09T09:27:53.125Z,28.5
2019-01-09T09:28:44.396Z,28.3
2019-01-09T09:29:36.903Z,28
2019-01-09T09:30:24.547Z,27.8
2019-01-09T09:31:14.534Z,27.8
2019-01-09T09:32:04.929Z,28
2019-01-09T09:32:54.739Z,28.3
2019-01-09T09:33:43.364Z,28.6
2019-01-09T09:34:34.489Z,28.7
2019-01-09T09:35:25.577Z,28.7
2019-01-09T09:36:14.893Z,28.7
2019-01-09T09:37:04.973Z,28.6
2019-01-09T09:37:55.506Z,28.4
2019-01-09T09:38:45.313Z,28.3
2019-01-09T09:39:35.637Z,28.1
2019-01-09T09:40:24.808Z,27.9
2019-01-09T09:41:15.691Z,27.7
2019-01-09T09:42:04.393Z,27.6
2019-01-09T09:42:54.813Z,27.9
2019-01-09T09:43:45.075Z,28.2
2019-01-09T09:44:35.739Z,28.5
2019-01-09T09:45:24.881Z,28.6
2019-01-09T09:46:15.804Z,28.7
2019-01-09T09:47:05.932Z,28.6
2019-01-09T09:47:55.626Z,28.6
2019-01-09T09:48:45.687Z,28.4
2019-01-09T09:49:36.271Z,28.3
2019-01-09T09:50:26.077Z,28.1
2019-01-09T09:52:05.477Z,27.7
2019-01-09T09:52:55.670Z,27.9
2019-01-09T09:53:45.243Z,28.3
2019-01-09T09:54:36.429Z,28.5
2019-01-09T09:55:25.560Z,28.6
2019-01-09T09:56:15.905Z,28.7
2019-01-09T09:57:06.282Z,28.7
2019-01-09T09:58:06.688Z,28.6
2019-01-09T09:58:46.138Z,28.4
2019-01-09T09:59:36.402Z,28.3
2019-01-09T10:00:25.990Z,28.1
2019-01-09T10:01:16.487Z,27.9
2019-01-09T10:02:05.447Z,27.6
2019-01-09T10:02:56.930Z,27.6
2019-01-09T10:04:37.525Z,28.1
2019-01-09T10:05:27.192Z,28.4
2019-01-09T10:06:16.307Z,28.5
2019-01-09T10:07:06.862Z,28.5
2019-01-09T10:07:56.415Z,28.4
2019-01-09T10:08:47.564Z,28.3
2019-01-09T10:09:37.352Z,28.2
2019-01-09T10:10:27.677Z,27.9
2019-01-09T10:11:16.549Z,27.7
2019-01-09T10:12:07.184Z,27.6
2019-01-09T10:13:46.803Z,28.1
2019-01-09T10:14:37.104Z,28.4
2019-01-09T10:15:27.997Z,28.6
2019-01-09T10:16:17.299Z,28.7
2019-01-09T10:17:07.349Z,28.7
2019-01-09T10:17:57.327Z,28.6
2019-01-09T10:18:46.946Z,28.6
2019-01-09T10:19:37.419Z,28.4
2019-01-09T10:20:27.783Z,28.2
2019-01-09T10:21:17.377Z,27.9
2019-01-09T10:22:08.496Z,27.9
2019-01-09T10:22:58.284Z,28.1
2019-01-09T10:23:47.666Z,28.4
2019-01-09T10:24:37.628Z,28.6
2019-01-09T10:25:27.986Z,28.7
2019-01-09T10:26:17.180Z,28.7
2019-01-09T10:27:08.035Z,28.6
2019-01-09T10:27:59.056Z,28.5
2019-01-09T10:28:47.764Z,28.3
2019-01-09T10:29:37.840Z,28.1
2019-01-09T10:31:17.461Z,27.6
2019-01-09T10:32:08.628Z,27.4
2019-01-09T10:32:57.679Z,27.5
2019-01-09T10:33:48.172Z,27.9
2019-01-09T10:34:38.818Z,28.3
2019-01-09T10:35:28.655Z,28.4
2019-01-09T10:36:19.811Z,28.6
2019-01-09T10:37:07.915Z,28.6
2019-01-09T10:37:59.218Z,28.6
2019-01-09T10:38:51.138Z,28.6
2019-01-09T10:39:39.168Z,28.4
2019-01-09T10:40:38.172Z,28.2
2019-01-09T10:41:18.620Z,27.9
2019-01-09T10:42:10.638Z,28
2019-01-09T10:42:59.185Z,28.3
2019-01-09T10:43:49.327Z,28.5
2019-01-09T10:44:41.260Z,28.7
2019-01-09T10:45:28.415Z,28.8
2019-01-09T10:46:19.520Z,28.8
2019-01-09T10:47:08.237Z,28.7
2019-01-09T10:47:59.102Z,28.6
2019-01-09T10:48:50.217Z,28.4
2019-01-09T10:49:39.678Z,28.3
2019-01-09T10:50:29.570Z,28
2019-01-09T10:51:18.931Z,27.8
2019-01-09T10:52:59.529Z,28.1
2019-01-09T10:53:49.981Z,28.4
2019-01-09T10:54:39.844Z,28.7
2019-01-09T10:55:30.997Z,28.8
2019-01-09T10:56:19.379Z,28.8
2019-01-09T10:57:09.957Z,28.7
2019-01-09T10:57:59.176Z,28.6
2019-01-09T10:58:50.618Z,28.4
2019-01-09T10:59:40.379Z,28.2
2019-01-09T11:00:30.459Z,27.9
2019-01-09T11:01:19.921Z,27.8
2019-01-09T11:02:10.888Z,27.9
2019-01-09T11:03:01.251Z,28.2
2019-01-09T11:03:50.363Z,28.5
2019-01-09T11:04:40.763Z,28.7
2019-01-09T11:05:30.603Z,28.8
2019-01-09T11:06:24.153Z,28.8
2019-01-09T11:07:11.238Z,28.7
2019-01-09T11:08:01.605Z,28.6
2019-01-09T11:08:56.981Z,28.5
2019-01-09T11:09:41.066Z,28.3
2019-01-09T11:10:30.818Z,28.1
2019-01-09T11:12:11.596Z,27.7
2019-01-09T11:13:01.852Z,27.9
2019-01-09T11:13:51.040Z,28.2
2019-01-09T11:14:41.381Z,28.4
2019-01-09T11:15:31.725Z,28.6
2019-01-09T11:16:20.365Z,28.8
2019-01-09T11:17:11.650Z,28.8
2019-01-09T11:18:01.883Z,28.6
2019-01-09T11:18:51.595Z,28.6
2019-01-09T11:19:41.765Z,28.4
2019-01-09T11:20:30.927Z,28.2
2019-01-09T11:21:22.090Z,27.9
2019-01-09T11:22:12.303Z,27.8
2019-01-09T11:23:01.431Z,27.9
2019-01-09T11:23:51.520Z,28.3
2019-01-09T11:24:41.860Z,28.6
2019-01-09T11:25:33.014Z,28.8
2019-01-09T11:26:23.157Z,28.8
2019-01-09T11:27:12.982Z,28.8
2019-01-09T11:28:02.401Z,28.7
2019-01-09T11:28:53.362Z,28.6
2019-01-09T11:29:42.984Z,28.4
2019-01-09T11:30:33.424Z,28.3
2019-01-09T11:31:22.745Z,28.1
2019-01-09T11:33:01.119Z,27.6
2019-01-09T11:33:51.304Z,27.6
2019-01-09T11:34:42.824Z,27.9
2019-01-09T11:35:33.706Z,28.3
2019-01-09T11:36:23.370Z,28.6
2019-01-09T11:37:13.411Z,28.7
2019-01-09T11:38:03.227Z,28.7
2019-01-09T11:39:01.141Z,28.7
2019-01-09T11:39:42.569Z,28.6
2019-01-09T11:40:33.179Z,28.5
2019-01-09T11:41:22.074Z,28.3
2019-01-09T11:42:13.286Z,28.1
2019-01-09T11:43:05.943Z,27.9
2019-01-09T11:43:53.594Z,27.9
2019-01-09T11:44:43.251Z,28.2
2019-01-09T11:45:33.441Z,28.5
2019-01-09T11:46:23.578Z,28.8
2019-01-09T11:47:14.108Z,28.9
2019-01-09T11:48:02.944Z,28.9
2019-01-09T11:48:52.551Z,28.8
2019-01-09T11:49:44.353Z,28.7
2019-01-09T11:50:34.147Z,28.6
2019-01-09T11:51:23.340Z,28.4
2019-01-09T11:52:13.583Z,28.1
2019-01-09T11:53:03.126Z,27.9
2019-01-09T11:53:54.238Z,27.8
2019-01-09T11:54:46.560Z,27.9
2019-01-09T11:55:34.573Z,28.3
2019-01-09T11:56:24.170Z,28.6
2019-01-09T11:57:14.205Z,28.8
2019-01-09T11:58:04.547Z,28.8
2019-01-09T11:58:54.404Z,28.8
2019-01-09T11:59:44.203Z,28.7
2019-01-09T12:00:34.168Z,28.5
2019-01-09T12:01:24.030Z,28.4
2019-01-09T12:02:23.250Z,28.2
2019-01-09T12:03:04.145Z,27.9
2019-01-09T12:03:55.512Z,27.7
2019-01-09T12:04:44.057Z,27.5
2019-01-09T12:05:34.198Z,27.4
2019-01-09T12:06:24.947Z,27.7
2019-01-09T12:07:14.590Z,28.1
2019-01-09T12:08:05.221Z,28.4
2019-01-09T12:09:06.874Z,28.6
2019-01-09T12:09:45.032Z,28.8
2019-01-09T12:10:39.698Z,28.8
2019-01-09T12:11:25.287Z,28.6
2019-01-09T12:12:15.240Z,28.6
2019-01-09T12:13:05.287Z,28.4
2019-01-09T12:13:56.704Z,28.2
2019-01-09T12:14:45.389Z,27.9
2019-01-09T12:16:25.754Z,27.9
2019-01-09T12:17:15.569Z,28.3
2019-01-09T12:18:04.866Z,28.6
2019-01-09T12:18:55.926Z,28.8
2019-01-09T12:19:44.646Z,28.8
2019-01-09T12:20:36.057Z,28.8
2019-01-09T12:23:27.109Z,28.7
2019-01-09T12:23:37.916Z,28.1
2019-01-09T12:24:27.888Z,28
2019-01-09T12:25:17.721Z,27.8
2019-01-09T12:26:07.734Z,27.6
2019-01-09T12:26:59.756Z,27.7
2019-01-09T12:27:48.714Z,28
2019-01-09T12:28:38.419Z,28.4
2019-01-09T12:29:28.275Z,28.6
2019-01-09T12:30:17.471Z,28.7
2019-01-09T12:31:08.636Z,28.8
2019-01-09T12:31:57.948Z,28.7
2019-01-09T12:32:48.567Z,28.6
2019-01-09T12:33:38.509Z,28.4
2019-01-09T12:34:29.123Z,28.3
2019-01-09T12:35:17.475Z,28.1
2019-01-09T12:36:07.918Z,27.9
2019-01-09T12:36:57.877Z,27.9